Time;durP1;ratioP1;P1;durP2;ratioP2;P2;SDS_P1;SDS_P2;PMS_P1;PMS_P2;Temp;Humidity;BMP_temperature;BMP_pressure;BME280_temperature;BME280_humidity;BME280_pressure;Samples;Min_cycle;Max_cycle;Signal;HPM_P1;HPM_P2
2022/02/28 00:01:44;;;;;;;14.68;9.90;;;2.20;96.20;;;;;;5138721;27;20210;-69
2022/02/28 00:04:11;;;;;;;15.65;10.90;;;2.20;96.40;;;;;;5138626;27;20228;-69
2022/02/28 00:06:38;;;;;;;11.68;9.52;;;2.30;96.50;;;;;;5138372;27;20197;-69
2022/02/28 00:09:05;;;;;;;14.20;9.75;;;2.20;96.30;;;;;;5138334;27;20221;-69
2022/02/28 00:11:31;;;;;;;14.50;9.68;;;2.20;96.30;;;;;;5138242;27;20205;-68
2022/02/28 00:14:00;;;;;;;16.23;10.98;;;2.20;96.30;;;;;;5138176;27;20203;-69
2022/02/28 00:16:26;;;;;;;15.27;10.70;;;2.10;96.40;;;;;;5138263;27;20220;-69
2022/02/28 00:18:53;;;;;;;13.50;10.05;;;2.10;96.60;;;;;;5137776;27;20223;-68
2022/02/28 00:21:20;;;;;;;17.02;11.30;;;2.10;96.70;;;;;;5138166;27;20210;-68
2022/02/28 00:23:47;;;;;;;17.20;11.73;;;2.00;96.80;;;;;;5138015;27;20201;-68
2022/02/28 00:26:14;;;;;;;14.60;10.50;;;2.00;97.10;;;;;;5137917;27;20196;-69
2022/02/28 00:28:40;;;;;;;16.02;10.60;;;2.00;97.20;;;;;;5137902;27;20232;-68
2022/02/28 00:31:09;;;;;;;14.57;10.32;;;2.00;97.20;;;;;;5137813;27;20255;-68
2022/02/28 00:33:36;;;;;;;15.23;10.77;;;1.90;97.30;;;;;;5137601;27;20678;-68
2022/02/28 00:36:03;;;;;;;13.93;10.18;;;1.90;97.40;;;;;;5137872;27;20224;-69
2022/02/28 00:38:29;;;;;;;15.52;10.25;;;1.90;97.70;;;;;;5137786;27;20227;-68
2022/02/28 00:40:56;;;;;;;15.32;10.63;;;1.80;97.80;;;;;;5137335;27;20197;-68
2022/02/28 00:43:23;;;;;;;13.13;9.68;;;1.80;97.80;;;;;;5137649;27;20291;-68
2022/02/28 00:45:50;;;;;;;14.45;10.20;;;1.80;97.80;;;;;;5137677;27;20283;-69
2022/02/28 00:48:18;;;;;;;13.55;10.15;;;1.80;98.00;;;;;;5137593;27;20560;-68
2022/02/28 00:50:45;;;;;;;14.80;9.93;;;1.80;98.30;;;;;;5137446;27;20197;-69
2022/02/28 00:53:12;;;;;;;12.95;8.70;;;1.70;98.30;;;;;;5137055;27;20204;-68
2022/02/28 00:55:39;;;;;;;15.15;10.30;;;1.80;98.50;;;;;;5137634;27;20228;-69
2022/02/28 00:58:07;;;;;;;14.25;9.88;;;1.80;98.60;;;;;;5137387;27;20216;-69
2022/02/28 01:00:35;;;;;;;11.80;9.55;;;1.70;98.60;;;;;;5137376;27;20242;-68
2022/02/28 01:03:02;;;;;;;13.35;10.18;;;1.80;98.70;;;;;;5137264;27;20212;-68
2022/02/28 01:05:30;;;;;;;11.80;9.27;;;1.70;98.50;;;;;;5137399;27;20659;-69
2022/02/28 01:07:57;;;;;;;16.40;10.88;;;1.70;98.50;;;;;;5137454;27;20216;-68
2022/02/28 01:10:25;;;;;;;14.43;10.30;;;1.70;98.50;;;;;;5137341;27;20197;-68
2022/02/28 01:12:53;;;;;;;14.30;9.85;;;1.70;98.80;;;;;;5137293;27;20197;-68
2022/02/28 01:15:21;;;;;;;14.50;9.63;;;1.70;98.90;;;;;;5137153;27;20239;-68
2022/02/28 01:17:50;;;;;;;17.30;10.77;;;1.60;99.00;;;;;;5136935;27;20217;-69
2022/02/28 01:20:17;;;;;;;16.42;10.75;;;1.60;99.00;;;;;;5136705;27;20239;-68
2022/02/28 01:22:45;;;;;;;15.27;10.10;;;1.60;99.10;;;;;;5136751;27;20248;-68
2022/02/28 01:25:13;;;;;;;14.50;10.48;;;1.60;99.10;;;;;;5136900;27;20201;-68
2022/02/28 01:27:41;;;;;;;15.70;10.00;;;1.70;99.30;;;;;;5136551;27;20229;-68
2022/02/28 01:30:09;;;;;;;13.25;9.00;;;1.60;99.10;;;;;;5136577;27;20617;-68
2022/02/28 01:32:36;;;;;;;14.13;10.00;;;1.60;99.20;;;;;;5136735;27;20201;-68
2022/02/28 01:35:03;;;;;;;15.23;10.82;;;1.60;99.30;;;;;;5136655;27;20228;-68
2022/02/28 01:37:30;;;;;;;15.88;11.32;;;1.60;99.60;;;;;;5136648;27;20251;-68
2022/02/28 01:39:58;;;;;;;14.18;10.20;;;1.60;99.40;;;;;;5136406;27;20292;-68
2022/02/28 01:42:25;;;;;;;14.27;10.88;;;1.50;99.60;;;;;;5136340;27;20211;-68
2022/02/28 01:44:52;;;;;;;14.02;10.13;;;1.60;99.50;;;;;;5136549;27;20299;-69
2022/02/28 01:47:19;;;;;;;16.13;10.75;;;1.50;99.40;;;;;;5136288;27;20227;-68
2022/02/28 01:49:46;;;;;;;15.13;10.77;;;1.50;99.60;;;;;;5136076;27;20211;-68
2022/02/28 01:52:14;;;;;;;15.30;9.85;;;1.50;99.80;;;;;;5136003;27;20300;-69
2022/02/28 01:54:41;;;;;;;18.95;11.98;;;1.50;99.90;;;;;;5136607;27;20204;-68
2022/02/28 01:57:09;;;;;;;18.30;11.50;;;1.50;99.90;;;;;;5136268;27;20586;-68
2022/02/28 01:59:36;;;;;;;17.25;10.93;;;1.40;99.90;;;;;;5136244;27;20627;-68
2022/02/28 02:02:03;;;;;;;17.35;10.45;;;1.40;99.90;;;;;;5136509;27;20291;-68
2022/02/28 02:04:30;;;;;;;14.77;10.40;;;1.40;99.90;;;;;;5135320;27;20227;-68
2022/02/28 02:06:57;;;;;;;12.60;10.10;;;1.30;99.90;;;;;;5135629;27;20296;-68
2022/02/28 02:09:24;;;;;;;15.10;10.82;;;1.30;99.90;;;;;;5136068;27;20228;-69
2022/02/28 02:11:52;;;;;;;16.35;10.10;;;1.30;99.90;;;;;;5135660;27;20292;-68
2022/02/28 02:14:20;;;;;;;14.32;9.82;;;1.30;99.90;;;;;;5135765;27;20201;-68
2022/02/28 02:16:47;;;;;;;17.52;11.60;;;1.30;99.90;;;;;;5135702;27;20312;-68
2022/02/28 02:19:14;;;;;;;16.67;11.45;;;1.30;99.90;;;;;;5135760;27;20201;-68
2022/02/28 02:21:42;;;;;;;15.98;11.13;;;1.30;99.90;;;;;;5135877;27;20596;-68
2022/02/28 02:24:09;;;;;;;15.07;10.88;;;1.30;99.90;;;;;;5136047;27;20580;-68
2022/02/28 02:26:35;;;;;;;16.88;11.30;;;1.20;99.90;;;;;;5135921;27;20201;-69
2022/02/28 02:29:03;;;;;;;11.82;9.88;;;1.20;99.90;;;;;;5136224;27;20572;-69
2022/02/28 02:31:29;;;;;;;17.05;10.80;;;1.20;99.90;;;;;;5135163;27;20201;-68
2022/02/28 02:33:56;;;;;;;15.48;10.40;;;1.20;99.90;;;;;;5135415;27;20296;-68
2022/02/28 02:36:23;;;;;;;15.73;11.02;;;1.20;99.90;;;;;;5135456;27;20311;-68
2022/02/28 02:38:52;;;;;;;17.77;11.10;;;1.20;99.90;;;;;;5135432;27;20227;-68
2022/02/28 02:41:20;;;;;;;16.85;10.80;;;1.20;99.90;;;;;;5135030;27;20197;-68
2022/02/28 02:43:47;;;;;;;18.65;11.00;;;1.20;99.90;;;;;;5135017;27;20200;-68
2022/02/28 02:46:14;;;;;;;15.60;10.52;;;1.20;99.90;;;;;;5135353;27;20193;-68
2022/02/28 02:48:41;;;;;;;18.45;10.82;;;1.20;99.90;;;;;;5135081;27;20216;-68
2022/02/28 02:51:07;;;;;;;15.48;10.38;;;1.10;99.90;;;;;;5135129;27;20207;-68
2022/02/28 02:53:34;;;;;;;16.35;9.60;;;1.10;99.90;;;;;;5135147;27;20197;-68
2022/02/28 02:56:03;;;;;;;13.88;10.43;;;1.10;99.90;;;;;;5135080;27;20224;-68
2022/02/28 02:58:30;;;;;;;17.08;10.88;;;1.10;99.90;;;;;;5134790;27;20216;-68
2022/02/28 03:00:57;;;;;;;16.88;10.20;;;1.10;99.90;;;;;;5134878;27;20196;-68
2022/02/28 03:03:23;;;;;;;15.15;9.93;;;1.10;99.90;;;;;;5135011;27;20232;-68
2022/02/28 03:05:51;;;;;;;16.70;11.07;;;1.10;99.90;;;;;;5134722;27;20288;-68
2022/02/28 03:08:19;;;;;;;16.17;10.73;;;1.10;99.90;;;;;;5134848;27;20220;-68
2022/02/28 03:10:46;;;;;;;18.48;10.73;;;1.10;99.90;;;;;;5134451;27;20207;-68
2022/02/28 03:13:14;;;;;;;19.00;11.45;;;1.10;99.90;;;;;;5134717;27;20288;-68
2022/02/28 03:15:41;;;;;;;19.10;12.07;;;1.10;99.90;;;;;;5134597;27;20657;-68
2022/02/28 03:18:08;;;;;;;18.73;12.00;;;1.10;99.90;;;;;;5134817;27;20221;-68
2022/02/28 03:20:35;;;;;;;17.67;11.30;;;1.10;99.90;;;;;;5134472;27;20307;-68
2022/02/28 03:23:02;;;;;;;14.77;10.45;;;1.00;99.90;;;;;;5134656;27;20291;-68
2022/02/28 03:25:28;;;;;;;17.35;10.27;;;1.00;99.90;;;;;;5134795;27;20203;-68
2022/02/28 03:27:55;;;;;;;14.77;10.57;;;1.10;99.90;;;;;;5134374;28;20241;-68
2022/02/28 03:30:23;;;;;;;14.52;10.60;;;1.10;99.90;;;;;;5135146;28;20207;-68
2022/02/28 03:32:50;;;;;;;17.38;12.10;;;1.10;99.90;;;;;;5135012;28;20291;-68
2022/02/28 03:35:17;;;;;;;14.10;10.15;;;1.00;99.90;;;;;;5134736;28;20203;-68
2022/02/28 03:37:44;;;;;;;18.50;11.07;;;1.00;99.90;;;;;;5134795;28;20254;-68
2022/02/28 03:40:12;;;;;;;17.42;11.02;;;1.00;99.90;;;;;;5134782;28;20201;-68
2022/02/28 03:42:39;;;;;;;19.85;12.05;;;1.00;99.90;;;;;;5134914;28;20207;-68
2022/02/28 03:45:07;;;;;;;15.98;10.77;;;0.90;99.90;;;;;;5134707;27;20211;-68
2022/02/28 03:47:35;;;;;;;16.23;10.10;;;1.00;99.90;;;;;;5134587;27;20217;-68
2022/02/28 03:50:02;;;;;;;18.85;11.52;;;0.90;99.90;;;;;;5134319;28;20196;-68
2022/02/28 03:52:29;;;;;;;19.13;11.02;;;0.90;99.90;;;;;;5134340;28;20654;-68
2022/02/28 03:54:56;;;;;;;17.70;10.63;;;0.90;99.90;;;;;;5134203;28;20662;-68
2022/02/28 03:57:23;;;;;;;19.70;11.50;;;0.80;99.90;;;;;;5133971;28;20314;-68
2022/02/28 03:59:50;;;;;;;18.08;12.02;;;0.80;99.90;;;;;;5134101;28;20197;-69
2022/02/28 04:02:17;;;;;;;19.15;12.23;;;0.80;99.90;;;;;;5134052;28;20685;-68
2022/02/28 04:04:45;;;;;;;19.10;12.20;;;0.80;99.90;;;;;;5134127;28;20261;-68
2022/02/28 04:07:12;;;;;;;15.88;11.00;;;0.90;99.90;;;;;;5134222;27;20216;-68
2022/02/28 04:09:39;;;;;;;17.38;11.25;;;0.90;99.90;;;;;;5134104;28;20663;-68
2022/02/28 04:12:08;;;;;;;16.23;10.80;;;0.90;99.90;;;;;;5134219;27;20288;-68
2022/02/28 04:14:35;;;;;;;15.07;11.00;;;0.80;99.90;;;;;;5133976;28;20250;-68
2022/02/28 04:17:02;;;;;;;13.00;10.05;;;0.90;99.90;;;;;;5133981;28;20235;-68
2022/02/28 04:19:29;;;;;;;13.40;10.30;;;0.90;99.90;;;;;;5134170;28;20228;-68
2022/02/28 04:21:57;;;;;;;17.85;11.20;;;0.90;99.90;;;;;;5133794;28;20291;-68
2022/02/28 04:24:24;;;;;;;18.65;13.10;;;0.90;99.90;;;;;;5134069;27;20205;-68
2022/02/28 04:26:51;;;;;;;17.48;12.63;;;0.90;99.90;;;;;;5133606;28;20671;-68
2022/02/28 04:29:18;;;;;;;21.30;12.57;;;0.80;99.90;;;;;;5136699;27;20292;-68
2022/02/28 04:31:44;;;;;;;16.90;11.65;;;0.80;99.90;;;;;;5137690;27;20197;-68
2022/02/28 04:34:11;;;;;;;16.10;11.35;;;0.80;99.90;;;;;;5137771;27;20307;-69
2022/02/28 04:36:38;;;;;;;14.23;9.45;;;0.70;99.90;;;;;;5137604;27;20573;-68
2022/02/28 04:39:06;;;;;;;15.98;10.95;;;0.80;99.90;;;;;;5137800;27;20302;-68
2022/02/28 04:41:33;;;;;;;15.85;10.93;;;0.80;99.90;;;;;;5137212;27;20243;-68
2022/02/28 04:44:00;;;;;;;20.05;12.57;;;0.80;99.90;;;;;;5137626;27;20288;-68
2022/02/28 04:46:27;;;;;;;18.95;11.88;;;0.70;99.90;;;;;;5137490;27;20199;-68
2022/02/28 04:48:54;;;;;;;16.95;11.20;;;0.80;99.90;;;;;;5137562;27;20227;-69
2022/02/28 04:51:21;;;;;;;16.35;11.00;;;0.80;99.90;;;;;;5137075;27;20228;-68
2022/02/28 04:53:48;;;;;;;16.48;11.43;;;0.70;99.90;;;;;;5137228;27;20291;-68
2022/02/28 04:56:16;;;;;;;21.02;12.65;;;0.70;99.90;;;;;;5137327;27;20221;-68
2022/02/28 04:58:43;;;;;;;18.63;12.00;;;0.70;99.90;;;;;;5137444;27;20622;-68
2022/02/28 05:01:09;;;;;;;17.60;11.50;;;0.70;99.90;;;;;;5136887;27;20201;-68
2022/02/28 05:03:36;;;;;;;17.65;11.30;;;0.70;99.90;;;;;;5137090;27;20207;-68
2022/02/28 05:06:03;;;;;;;16.95;10.55;;;0.70;99.90;;;;;;5137161;27;20207;-68
2022/02/28 05:08:30;;;;;;;18.75;11.75;;;0.80;99.90;;;;;;5137110;27;20636;-68
2022/02/28 05:10:57;;;;;;;16.40;10.95;;;0.70;99.90;;;;;;5136801;27;20197;-68
2022/02/28 05:13:25;;;;;;;19.20;12.10;;;0.70;99.90;;;;;;5137069;27;20240;-68
2022/02/28 05:15:52;;;;;;;19.13;12.40;;;0.70;99.90;;;;;;5136959;27;20200;-69
2022/02/28 05:18:19;;;;;;;20.15;11.93;;;0.80;99.90;;;;;;5136846;27;20232;-68
2022/02/28 05:20:46;;;;;;;19.48;12.18;;;0.80;99.90;;;;;;5136551;27;20211;-68
2022/02/28 05:23:13;;;;;;;18.50;12.15;;;0.80;99.90;;;;;;5136838;27;20201;-68
2022/02/28 05:25:39;;;;;;;18.55;11.32;;;0.80;99.90;;;;;;5137074;27;20203;-68
2022/02/28 05:28:06;;;;;;;16.52;11.60;;;0.80;99.90;;;;;;5136769;27;20323;-68
2022/02/28 05:30:35;;;;;;;21.13;12.63;;;0.70;99.90;;;;;;5136723;27;20283;-68
2022/02/28 05:33:01;;;;;;;19.13;12.40;;;0.70;99.90;;;;;;5136253;27;20296;-68
2022/02/28 05:35:28;;;;;;;18.20;12.77;;;0.70;99.90;;;;;;5136595;27;20197;-68
2022/02/28 05:37:55;;;;;;;21.40;12.50;;;0.70;99.90;;;;;;5136870;27;20233;-68
2022/02/28 05:40:22;;;;;;;17.25;11.80;;;0.70;99.90;;;;;;5136181;27;20205;-68
2022/02/28 05:42:49;;;;;;;18.48;12.73;;;0.60;99.90;;;;;;5136533;27;20682;-68
2022/02/28 05:45:16;;;;;;;16.83;11.52;;;0.60;99.90;;;;;;5136346;27;20205;-68
2022/02/28 05:47:44;;;;;;;19.45;13.40;;;0.70;99.90;;;;;;5136023;27;20217;-68
2022/02/28 05:50:11;;;;;;;21.52;13.05;;;0.60;99.90;;;;;;5135832;27;20281;-68
2022/02/28 05:52:38;;;;;;;20.38;12.18;;;0.60;99.90;;;;;;5136275;27;20201;-68
2022/02/28 05:55:07;;;;;;;19.52;11.88;;;0.60;99.90;;;;;;5136095;27;20201;-68
2022/02/28 05:57:37;;;;;;;20.75;12.38;;;0.50;99.90;;;;;;5135949;27;20224;-68
2022/02/28 06:00:07;;;;;;;19.20;11.70;;;0.40;99.90;;;;;;5135825;27;20663;-68
2022/02/28 06:02:34;;;;;;;19.20;12.73;;;0.40;99.90;;;;;;5136638;27;20197;-68
2022/02/28 06:05:02;;;;;;;17.48;11.98;;;0.40;99.90;;;;;;5136331;27;20297;-69
2022/02/28 06:07:29;;;;;;;18.00;12.32;;;0.40;99.90;;;;;;5135888;27;20252;-68
2022/02/28 06:09:56;;;;;;;19.77;12.60;;;0.40;99.90;;;;;;5135761;27;20587;-68
2022/02/28 06:12:23;;;;;;;19.55;12.55;;;0.40;99.90;;;;;;5135758;27;20201;-68
2022/02/28 06:14:50;;;;;;;18.50;12.73;;;0.50;99.90;;;;;;5135796;27;20204;-68
2022/02/28 06:17:16;;;;;;;17.80;12.07;;;0.50;99.90;;;;;;5135600;27;20231;-68
2022/02/28 06:19:43;;;;;;;17.80;11.40;;;0.50;99.90;;;;;;5135623;27;20566;-68
2022/02/28 06:22:11;;;;;;;16.75;11.10;;;0.60;99.90;;;;;;5135495;27;20223;-68
2022/02/28 06:24:38;;;;;;;18.95;12.60;;;0.60;99.90;;;;;;5135496;27;20296;-68
2022/02/28 06:27:05;;;;;;;15.45;11.27;;;0.70;99.90;;;;;;5135312;27;20209;-68
2022/02/28 06:29:32;;;;;;;18.00;11.70;;;0.80;99.90;;;;;;5135483;27;20196;-68
2022/02/28 06:31:59;;;;;;;15.75;11.45;;;0.80;99.90;;;;;;5135117;27;20211;-69
2022/02/28 06:34:31;;;;;;;24.08;12.50;;;0.90;99.90;;;;;;5135382;27;20291;-68
2022/02/28 06:36:58;;;;;;;18.90;13.23;;;0.90;99.90;;;;;;5135372;27;20220;-69
2022/02/28 06:39:26;;;;;;;19.80;13.23;;;1.00;99.90;;;;;;5135407;27;20213;-68
2022/02/28 06:41:54;;;;;;;17.23;12.52;;;1.00;99.90;;;;;;5135247;27;20200;-68
2022/02/28 06:44:21;;;;;;;22.23;14.13;;;1.00;99.90;;;;;;5135353;27;20203;-68
2022/02/28 06:46:47;;;;;;;18.50;13.00;;;1.10;99.90;;;;;;5135238;27;20199;-69
2022/02/28 06:49:14;;;;;;;17.20;11.77;;;1.10;99.90;;;;;;5135539;27;20221;-69
2022/02/28 06:51:41;;;;;;;18.90;13.25;;;1.20;99.90;;;;;;5134568;27;20201;-68
2022/02/28 06:54:08;;;;;;;23.95;13.57;;;1.20;99.90;;;;;;5134923;27;20275;-68
2022/02/28 06:56:36;;;;;;;26.40;13.80;;;1.20;99.90;;;;;;5135346;27;20201;-68
2022/02/28 06:59:03;;;;;;;22.33;13.35;;;1.20;99.90;;;;;;5134693;27;20749;-68
2022/02/28 07:01:32;;;;;;;29.45;13.73;;;1.20;99.90;;;;;;5134746;27;20197;-69
2022/02/28 07:04:00;;;;;;;21.75;13.48;;;1.30;99.90;;;;;;5135017;27;20211;-68
2022/02/28 07:06:27;;;;;;;21.70;13.52;;;1.30;99.90;;;;;;5134813;27;20251;-68
2022/02/28 07:08:54;;;;;;;21.83;14.07;;;1.30;99.90;;;;;;5134542;27;20714;-69
2022/02/28 07:11:21;;;;;;;22.98;14.68;;;1.30;99.90;;;;;;5134670;27;20197;-69
2022/02/28 07:13:49;;;;;;;19.63;13.95;;;1.40;99.90;;;;;;5135046;27;20207;-69
2022/02/28 07:16:17;;;;;;;21.55;14.38;;;1.40;99.90;;;;;;5134846;27;20200;-68
2022/02/28 07:18:44;;;;;;;19.70;13.43;;;1.50;99.90;;;;;;5134939;27;20229;-69
2022/02/28 07:21:10;;;;;;;21.13;13.40;;;1.50;99.90;;;;;;5134417;27;20207;-68
2022/02/28 07:23:37;;;;;;;20.42;14.30;;;1.50;99.90;;;;;;5134854;27;20196;-69
2022/02/28 07:26:04;;;;;;;26.70;15.20;;;1.40;99.90;;;;;;5134760;27;20299;-69
2022/02/28 07:28:31;;;;;;;21.95;14.07;;;1.40;99.90;;;;;;5134231;27;20597;-69
2022/02/28 07:30:59;;;;;;;23.13;14.65;;;1.40;99.90;;;;;;5134408;28;20196;-68
2022/02/28 07:33:26;;;;;;;23.35;14.65;;;1.40;99.90;;;;;;5134603;28;20207;-69
2022/02/28 07:35:52;;;;;;;27.60;14.93;;;1.50;99.90;;;;;;5134459;28;20655;-69
2022/02/28 07:38:19;;;;;;;25.02;15.55;;;1.60;99.90;;;;;;5134547;28;20329;-69
2022/02/28 07:40:46;;;;;;;24.52;15.95;;;1.70;99.90;;;;;;5134306;28;20222;-68
2022/02/28 07:43:13;;;;;;;21.27;15.82;;;1.70;99.90;;;;;;5134493;28;20207;-69
2022/02/28 07:45:40;;;;;;;26.00;16.17;;;1.70;99.90;;;;;;5134487;28;20196;-68
2022/02/28 07:48:08;;;;;;;23.05;16.05;;;1.70;99.90;;;;;;5134225;28;20242;-68
2022/02/28 07:50:35;;;;;;;21.23;15.25;;;1.80;99.90;;;;;;5134278;27;20205;-69
2022/02/28 07:53:02;;;;;;;23.70;14.98;;;1.90;99.90;;;;;;5134408;28;20569;-69
2022/02/28 07:55:29;;;;;;;26.63;16.25;;;1.90;99.90;;;;;;5134490;28;20207;-69
2022/02/28 07:57:56;;;;;;;24.48;15.82;;;2.00;99.90;;;;;;5134178;28;20694;-68
2022/02/28 08:00:23;;;;;;;25.95;16.33;;;2.00;99.90;;;;;;5133945;28;20208;-68
2022/02/28 08:02:52;;;;;;;26.65;16.02;;;1.90;99.90;;;;;;5134549;27;20287;-68
2022/02/28 08:05:20;;;;;;;26.58;17.63;;;2.00;99.90;;;;;;5138542;27;20200;-68
2022/02/28 08:07:47;;;;;;;28.40;16.23;;;2.10;99.90;;;;;;5138328;27;20216;-69
2022/02/28 08:10:14;;;;;;;25.65;17.20;;;2.00;99.90;;;;;;5138206;27;20201;-69
2022/02/28 08:12:40;;;;;;;24.48;17.17;;;1.90;99.90;;;;;;5138403;27;20204;-69
2022/02/28 08:15:08;;;;;;;33.70;17.55;;;1.80;99.90;;;;;;5138495;27;20209;-69
2022/02/28 08:17:35;;;;;;;29.08;18.85;;;1.80;99.90;;;;;;5138238;27;20228;-69
2022/02/28 08:20:02;;;;;;;33.97;20.10;;;1.70;99.90;;;;;;5138830;27;20205;-68
2022/02/28 08:22:30;;;;;;;31.35;19.10;;;1.60;99.90;;;;;;5138337;27;20288;-68
2022/02/28 08:24:58;;;;;;;33.75;19.52;;;1.50;99.90;;;;;;5137959;27;20211;-68
2022/02/28 08:27:25;;;;;;;35.55;19.27;;;1.40;99.90;;;;;;5137646;27;20232;-68
2022/02/28 08:29:52;;;;;;;43.33;20.92;;;1.40;99.90;;;;;;5137549;27;20291;-68
2022/02/28 08:32:19;;;;;;;33.15;19.48;;;1.50;99.90;;;;;;5137868;27;20200;-69
2022/02/28 08:34:46;;;;;;;30.83;18.95;;;1.50;99.90;;;;;;5137884;27;20208;-68
2022/02/28 08:37:13;;;;;;;34.38;19.33;;;1.50;99.90;;;;;;5137507;27;20315;-68
2022/02/28 08:39:41;;;;;;;32.28;20.48;;;1.60;99.90;;;;;;5137834;27;20201;-68
2022/02/28 08:42:08;;;;;;;34.33;20.35;;;1.60;99.90;;;;;;5137741;27;20208;-68
2022/02/28 08:44:34;;;;;;;34.28;18.63;;;1.70;99.90;;;;;;5137637;27;20200;-69
2022/02/28 08:47:01;;;;;;;35.33;18.92;;;1.80;99.90;;;;;;5137226;27;20714;-69
2022/02/28 08:49:28;;;;;;;27.20;18.85;;;1.90;99.90;;;;;;5137682;27;20203;-68
2022/02/28 08:51:55;;;;;;;30.10;17.55;;;2.00;99.90;;;;;;5137408;27;20196;-69
2022/02/28 08:54:22;;;;;;;27.83;17.75;;;2.10;99.90;;;;;;5137448;27;20207;-69
2022/02/28 08:56:50;;;;;;;31.20;19.55;;;2.20;99.90;;;;;;5137494;27;20212;-69
2022/02/28 08:59:17;;;;;;;28.60;19.27;;;2.30;99.90;;;;;;5137349;27;20235;-69
2022/02/28 09:01:44;;;;;;;31.17;21.13;;;2.40;99.90;;;;;;5137035;27;20677;-68
2022/02/28 09:04:11;;;;;;;37.28;19.77;;;2.50;99.90;;;;;;5137321;27;20197;-69
2022/02/28 09:06:37;;;;;;;37.65;21.00;;;2.60;99.90;;;;;;5137172;27;20291;-69
2022/02/28 09:09:04;;;;;;;31.02;19.10;;;2.70;99.90;;;;;;5137165;27;20223;-69
2022/02/28 09:11:31;;;;;;;33.40;19.60;;;2.80;99.90;;;;;;5136793;27;20299;-69
2022/02/28 09:13:59;;;;;;;27.38;18.85;;;2.80;99.90;;;;;;5136757;27;20207;-69
2022/02/28 09:16:28;;;;;;;30.77;18.42;;;2.80;99.90;;;;;;5137189;27;20565;-68
2022/02/28 09:18:55;;;;;;;30.13;18.23;;;2.90;99.90;;;;;;5137042;27;20312;-69
2022/02/28 09:21:22;;;;;;;27.83;19.10;;;3.10;99.90;;;;;;5137039;27;20201;-69
2022/02/28 09:23:49;;;;;;;28.67;19.40;;;3.20;99.90;;;;;;5137323;27;20741;-69
2022/02/28 09:26:16;;;;;;;35.50;17.10;;;3.30;99.90;;;;;;5137656;27;20197;-69
2022/02/28 09:28:42;;;;;;;33.67;18.98;;;3.40;99.90;;;;;;5137013;27;20710;-69
2022/02/28 09:31:11;;;;;;;23.00;16.67;;;3.40;99.20;;;;;;5137127;27;20264;-68
2022/02/28 09:33:37;;;;;;;28.92;17.13;;;3.40;98.80;;;;;;5137021;27;20230;-68
2022/02/28 09:36:07;;;;;;;26.10;16.90;;;3.50;99.10;;;;;;5136815;27;20291;-69
2022/02/28 09:38:34;;;;;;;27.10;17.08;;;3.60;98.80;;;;;;5136629;27;20216;-68
2022/02/28 09:41:01;;;;;;;25.27;16.17;;;3.80;97.70;;;;;;5136242;27;20667;-69
2022/02/28 09:43:28;;;;;;;25.77;16.27;;;3.90;97.80;;;;;;5136748;27;20201;-69
2022/02/28 09:45:55;;;;;;;20.98;15.77;;;4.00;96.90;;;;;;5136482;27;20295;-69
2022/02/28 09:48:24;;;;;;;23.13;15.27;;;4.10;96.50;;;;;;5136440;27;20216;-69
2022/02/28 09:50:51;;;;;;;22.95;16.20;;;4.10;96.30;;;;;;5136363;27;20296;-68
2022/02/28 09:53:19;;;;;;;20.30;15.85;;;4.20;95.80;;;;;;5136684;27;20281;-69
2022/02/28 09:55:46;;;;;;;23.42;14.85;;;4.30;96.00;;;;;;5137481;27;20206;-69
2022/02/28 09:58:13;;;;;;;22.75;14.90;;;4.50;96.10;;;;;;5137313;27;20224;-69
2022/02/28 10:00:43;;;;;;;23.25;15.65;;;4.70;95.10;;;;;;5137393;27;20227;-69
2022/02/28 10:03:10;;;;;;;22.33;14.60;;;4.80;94.50;;;;;;5137275;27;20205;-69
2022/02/28 10:05:39;;;;;;;24.13;15.25;;;4.90;94.20;;;;;;5137227;27;20635;-69
2022/02/28 10:08:06;;;;;;;20.75;14.25;;;4.90;93.20;;;;;;5137522;27;20217;-68
2022/02/28 10:10:35;;;;;;;21.88;15.00;;;5.20;92.80;;;;;;5137231;27;20201;-68
2022/02/28 10:13:03;;;;;;;18.85;12.75;;;5.40;91.50;;;;;;5136087;27;20253;-69
2022/02/28 10:15:30;;;;;;;17.95;12.57;;;5.70;90.50;;;;;;5136168;27;20207;-69
2022/02/28 10:17:58;;;;;;;18.58;13.57;;;6.10;90.10;;;;;;5135934;27;20221;-68
2022/02/28 10:20:27;;;;;;;21.23;13.55;;;6.40;87.90;;;;;;5135728;27;20196;-69
2022/02/28 10:22:57;;;;;;;20.25;14.68;;;6.70;85.60;;;;;;5135815;27;20203;-69
2022/02/28 10:25:30;;;;;;;17.77;14.15;;;7.10;85.90;;;;;;5135396;27;20291;-69
2022/02/28 10:28:18;;;;;;;18.50;15.20;;;7.10;85.30;;;;;;5134977;27;20240;-69
2022/02/28 10:31:00;;;;;;;18.42;14.63;;;7.40;84.80;;;;;;5135569;27;20235;-69
2022/02/28 10:33:31;;;;;;;20.90;14.73;;;7.50;80.60;;;;;;5135455;27;20204;-69
2022/02/28 10:36:13;;;;;;;16.90;12.65;;;7.70;80.60;;;;;;5135488;27;20662;-69
2022/02/28 10:38:46;;;;;;;19.38;14.43;;;8.30;76.40;;;;;;5135755;27;20221;-69
2022/02/28 10:41:18;;;;;;;18.52;13.00;;;8.80;73.90;;;;;;5135530;27;20204;-68
2022/02/28 10:43:46;;;;;;;21.67;13.48;;;9.10;72.30;;;;;;5135674;27;20204;-69
2022/02/28 10:46:16;;;;;;;16.58;12.63;;;9.40;69.60;;;;;;5136041;27;20205;-69
2022/02/28 10:48:55;;;;;;;16.83;13.10;;;9.90;70.80;;;;;;5136014;27;20224;-69
2022/02/28 10:51:22;;;;;;;17.20;14.23;;;10.00;64.80;;;;;;5135817;27;20208;-69
2022/02/28 10:54:05;;;;;;;15.00;13.35;;;10.30;66.00;;;;;;5135978;27;20566;-69
2022/02/28 10:56:48;;;;;;;17.30;13.30;;;10.20;61.70;;;;;;5135740;27;20291;-69
2022/02/28 10:59:15;;;;;;;16.73;12.45;;;10.10;63.30;;;;;;5135963;27;20227;-69
2022/02/28 11:01:42;;;;;;;17.17;13.13;;;10.00;61.70;;;;;;5135267;27;20624;-69
2022/02/28 11:04:09;;;;;;;17.70;12.23;;;9.70;63.60;;;;;;5135628;27;20209;-69
2022/02/28 11:06:37;;;;;;;17.05;13.43;;;9.50;63.00;;;;;;5135357;27;20211;-69
2022/02/28 11:09:06;;;;;;;18.05;13.30;;;9.50;65.00;;;;;;5135680;27;20220;-69
2022/02/28 11:11:33;;;;;;;19.52;13.18;;;9.50;65.20;;;;;;5135348;27;20196;-69
2022/02/28 11:14:00;;;;;;;14.52;12.75;;;9.50;63.10;;;;;;5135582;27;20212;-69
2022/02/28 11:16:28;;;;;;;17.60;12.75;;;9.90;63.70;;;;;;5135486;27;20203;-69
2022/02/28 11:18:55;;;;;;;16.65;12.18;;;10.50;61.70;;;;;;5134869;27;20269;-69
2022/02/28 11:21:23;;;;;;;17.02;13.57;;;11.10;60.10;;;;;;5134553;27;20287;-69
2022/02/28 11:23:50;;;;;;;14.55;12.55;;;11.80;57.80;;;;;;5134813;27;20200;-69
2022/02/28 11:26:19;;;;;;;16.17;12.38;;;12.90;56.30;;;;;;5135870;27;20207;-70
2022/02/28 11:28:46;;;;;;;15.32;12.85;;;13.80;52.50;;;;;;5135976;27;20304;-69
2022/02/28 11:31:15;;;;;;;15.75;12.93;;;14.40;51.10;;;;;;5135737;28;20202;-69
2022/02/28 11:33:52;;;;;;;14.90;13.02;;;14.40;48.20;;;;;;5136028;28;20256;-70
2022/02/28 11:36:19;;;;;;;14.18;11.98;;;14.40;47.70;;;;;;5136230;28;20202;-69
2022/02/28 11:38:46;;;;;;;15.07;12.65;;;14.20;47.50;;;;;;5138871;27;20222;-70
2022/02/28 11:41:16;;;;;;;14.05;12.32;;;14.00;46.80;;;;;;5138848;27;20227;-69
2022/02/28 11:43:47;;;;;;;14.95;11.73;;;13.90;46.90;;;;;;5139818;27;20210;-70
2022/02/28 11:46:20;;;;;;;15.60;12.93;;;13.90;47.60;;;;;;5140293;27;20564;-69
2022/02/28 11:48:50;;;;;;;15.65;12.13;;;14.20;47.70;;;;;;5140464;27;20218;-70
2022/02/28 11:51:28;;;;;;;14.20;11.55;;;14.30;47.00;;;;;;5140042;27;20213;-69
2022/02/28 11:53:57;;;;;;;15.60;12.77;;;14.20;46.00;;;;;;5139882;27;20257;-70
2022/02/28 11:57:02;;;;;;;13.20;11.80;;;14.10;45.50;;;;;;5138741;27;20291;-69
2022/02/28 11:59:33;;;;;;;13.90;11.02;;;13.50;46.90;;;;;;5138609;27;20238;-69
2022/02/28 12:02:03;;;;;;;13.38;11.95;;;13.20;47.80;;;;;;5138357;27;20662;-69
2022/02/28 12:04:38;;;;;;;14.73;12.00;;;13.00;48.10;;;;;;5138482;27;20200;-70
2022/02/28 12:07:06;;;;;;;15.00;12.43;;;12.90;48.40;;;;;;5138383;27;20207;-70
2022/02/28 12:09:47;;;;;;;13.85;11.88;;;12.50;47.50;;;;;;5138488;27;20201;-69
2022/02/28 12:12:20;;;;;;;15.60;12.85;;;12.30;50.00;;;;;;5138557;27;20204;-69
2022/02/28 12:15:10;;;;;;;14.82;11.98;;;12.40;48.90;;;;;;5138423;27;20204;-69
2022/02/28 12:18:11;;;;;;;13.73;11.73;;;12.70;46.90;;;;;;5139386;27;20228;-69
2022/02/28 12:20:45;;;;;;;14.95;11.95;;;13.80;47.10;;;;;;5104203;27;20210;-69
2022/02/28 12:23:25;;;;;;;14.80;12.45;;;14.70;46.80;;;;;;5138341;27;20650;-69
2022/02/28 12:26:11;;;;;;;15.27;12.07;;;15.40;43.90;;;;;;5138161;27;20670;-70
2022/02/28 12:28:56;;;;;;;13.57;11.57;;;15.80;43.60;;;;;;5138412;27;20705;-70
2022/02/28 12:31:42;;;;;;;13.38;11.88;;;16.60;43.50;;;;;;5138046;27;20658;-69
2022/02/28 12:34:12;;;;;;;15.75;12.60;;;16.60;43.80;;;;;;5138658;27;20244;-70
2022/02/28 12:36:44;;;;;;;13.15;11.55;;;17.10;41.00;;;;;;5138516;27;20201;-70
2022/02/28 12:39:14;;;;;;;16.95;13.10;;;17.40;40.20;;;;;;5138365;27;20335;-70
2022/02/28 12:41:43;;;;;;;16.23;13.40;;;17.50;40.60;;;;;;5138136;27;20208;-69